sensor_id;sensor_type;location;lat;lon;timestamp;P1;durP1;ratioP1;P2;durP2;ratioP2
26718;SDS011;14326;50.794;6.060;2024-02-16T00:00:06;7.75;;;2.10;;
26718;SDS011;14326;50.794;6.060;2024-02-16T00:02:36;6.10;;;2.00;;
26718;SDS011;14326;50.794;6.060;2024-02-16T00:05:02;9.48;;;2.22;;
26718;SDS011;14326;50.794;6.060;2024-02-16T00:07:31;8.60;;;2.25;;
26718;SDS011;14326;50.794;6.060;2024-02-16T00:09:59;6.68;;;2.20;;
26718;SDS011;14326;50.794;6.060;2024-02-16T00:12:26;6.93;;;2.13;;
26718;SDS011;14326;50.794;6.060;2024-02-16T00:14:52;6.10;;;2.20;;
26718;SDS011;14326;50.794;6.060;2024-02-16T00:17:19;10.52;;;2.45;;
26718;SDS011;14326;50.794;6.060;2024-02-16T00:19:46;6.68;;;2.20;;
26718;SDS011;14326;50.794;6.060;2024-02-16T00:22:12;8.48;;;2.58;;
26718;SDS011;14326;50.794;6.060;2024-02-16T00:24:40;8.45;;;2.20;;
26718;SDS011;14326;50.794;6.060;2024-02-16T00:27:07;8.95;;;2.33;;
26718;SDS011;14326;50.794;6.060;2024-02-16T00:29:34;6.90;;;1.60;;
26718;SDS011;14326;50.794;6.060;2024-02-16T00:32:01;8.18;;;2.10;;
26718;SDS011;14326;50.794;6.060;2024-02-16T00:34:28;6.00;;;2.05;;
26718;SDS011;14326;50.794;6.060;2024-02-16T00:36:55;7.82;;;2.40;;
26718;SDS011;14326;50.794;6.060;2024-02-16T00:39:21;10.15;;;2.38;;
26718;SDS011;14326;50.794;6.060;2024-02-16T00:41:48;7.25;;;2.15;;
26718;SDS011;14326;50.794;6.060;2024-02-16T00:44:17;5.80;;;2.00;;
26718;SDS011;14326;50.794;6.060;2024-02-16T00:46:44;8.77;;;2.45;;
26718;SDS011;14326;50.794;6.060;2024-02-16T00:49:10;8.02;;;2.13;;
26718;SDS011;14326;50.794;6.060;2024-02-16T00:51:37;6.90;;;1.90;;
26718;SDS011;14326;50.794;6.060;2024-02-16T00:54:04;7.88;;;2.30;;
26718;SDS011;14326;50.794;6.060;2024-02-16T00:56:31;7.97;;;2.10;;
26718;SDS011;14326;50.794;6.060;2024-02-16T00:58:58;11.63;;;2.90;;
26718;SDS011;14326;50.794;6.060;2024-02-16T01:01:26;8.63;;;2.33;;
26718;SDS011;14326;50.794;6.060;2024-02-16T01:03:53;8.43;;;2.08;;
26718;SDS011;14326;50.794;6.060;2024-02-16T01:06:19;9.93;;;2.22;;
26718;SDS011;14326;50.794;6.060;2024-02-16T01:08:46;6.80;;;2.35;;
26718;SDS011;14326;50.794;6.060;2024-02-16T01:11:12;8.77;;;2.20;;
26718;SDS011;14326;50.794;6.060;2024-02-16T01:13:39;6.47;;;2.15;;
26718;SDS011;14326;50.794;6.060;2024-02-16T01:16:06;7.38;;;1.90;;
26718;SDS011;14326;50.794;6.060;2024-02-16T01:18:35;9.07;;;2.20;;
26718;SDS011;14326;50.794;6.060;2024-02-16T01:21:02;9.63;;;2.20;;
26718;SDS011;14326;50.794;6.060;2024-02-16T01:23:29;5.32;;;2.03;;
26718;SDS011;14326;50.794;6.060;2024-02-16T01:25:56;7.72;;;2.35;;
26718;SDS011;14326;50.794;6.060;2024-02-16T01:28:22;10.75;;;2.30;;
26718;SDS011;14326;50.794;6.060;2024-02-16T01:30:49;6.95;;;2.13;;
26718;SDS011;14326;50.794;6.060;2024-02-16T01:33:16;11.50;;;2.47;;
26718;SDS011;14326;50.794;6.060;2024-02-16T01:35:44;7.90;;;2.20;;
26718;SDS011;14326;50.794;6.060;2024-02-16T01:38:11;7.35;;;2.35;;
26718;SDS011;14326;50.794;6.060;2024-02-16T01:40:38;9.13;;;2.53;;
26718;SDS011;14326;50.794;6.060;2024-02-16T01:43:04;7.47;;;2.30;;
26718;SDS011;14326;50.794;6.060;2024-02-16T01:45:31;5.82;;;2.00;;
26718;SDS011;14326;50.794;6.060;2024-02-16T01:47:57;8.30;;;2.58;;
26718;SDS011;14326;50.794;6.060;2024-02-16T01:50:24;7.72;;;2.22;;
26718;SDS011;14326;50.794;6.060;2024-02-16T01:52:52;8.30;;;2.55;;
26718;SDS011;14326;50.794;6.060;2024-02-16T01:55:19;8.10;;;2.08;;
26718;SDS011;14326;50.794;6.060;2024-02-16T01:57:47;7.22;;;2.33;;
26718;SDS011;14326;50.794;6.060;2024-02-16T02:00:15;6.53;;;2.10;;
26718;SDS011;14326;50.794;6.060;2024-02-16T02:02:43;9.63;;;2.20;;
26718;SDS011;14326;50.794;6.060;2024-02-16T02:05:11;9.65;;;2.13;;
26718;SDS011;14326;50.794;6.060;2024-02-16T02:07:38;10.55;;;2.38;;
26718;SDS011;14326;50.794;6.060;2024-02-16T02:10:06;6.93;;;2.30;;
26718;SDS011;14326;50.794;6.060;2024-02-16T02:12:33;11.38;;;2.35;;
26718;SDS011;14326;50.794;6.060;2024-02-16T02:15:00;8.65;;;2.33;;
26718;SDS011;14326;50.794;6.060;2024-02-16T02:17:28;11.23;;;2.70;;
26718;SDS011;14326;50.794;6.060;2024-02-16T02:19:54;6.43;;;2.20;;
26718;SDS011;14326;50.794;6.060;2024-02-16T02:22:22;8.73;;;2.10;;
26718;SDS011;14326;50.794;6.060;2024-02-16T02:24:52;11.07;;;2.50;;
26718;SDS011;14326;50.794;6.060;2024-02-16T02:27:20;8.35;;;2.28;;
26718;SDS011;14326;50.794;6.060;2024-02-16T02:29:47;7.68;;;2.20;;
26718;SDS011;14326;50.794;6.060;2024-02-16T02:32:14;6.95;;;2.45;;
26718;SDS011;14326;50.794;6.060;2024-02-16T02:34:40;10.20;;;2.50;;
26718;SDS011;14326;50.794;6.060;2024-02-16T02:37:07;10.00;;;2.40;;
26718;SDS011;14326;50.794;6.060;2024-02-16T02:39:35;9.70;;;2.60;;
26718;SDS011;14326;50.794;6.060;2024-02-16T02:42:02;9.18;;;2.45;;
26718;SDS011;14326;50.794;6.060;2024-02-16T02:44:28;9.38;;;2.38;;
26718;SDS011;14326;50.794;6.060;2024-02-16T02:46:56;10.73;;;2.58;;
26718;SDS011;14326;50.794;6.060;2024-02-16T02:49:23;8.30;;;2.20;;
26718;SDS011;14326;50.794;6.060;2024-02-16T02:51:49;8.98;;;2.30;;
26718;SDS011;14326;50.794;6.060;2024-02-16T02:54:16;11.23;;;2.70;;
26718;SDS011;14326;50.794;6.060;2024-02-16T02:56:44;6.40;;;2.55;;
26718;SDS011;14326;50.794;6.060;2024-02-16T02:59:11;10.57;;;2.78;;
26718;SDS011;14326;50.794;6.060;2024-02-16T03:01:37;9.05;;;2.70;;
26718;SDS011;14326;50.794;6.060;2024-02-16T03:04:04;6.05;;;2.30;;
26718;SDS011;14326;50.794;6.060;2024-02-16T03:06:31;10.52;;;2.80;;
26718;SDS011;14326;50.794;6.060;2024-02-16T03:08:57;10.38;;;2.60;;
26718;SDS011;14326;50.794;6.060;2024-02-16T03:11:24;8.88;;;2.35;;
26718;SDS011;14326;50.794;6.060;2024-02-16T03:13:52;8.73;;;2.40;;
26718;SDS011;14326;50.794;6.060;2024-02-16T03:16:19;8.98;;;2.67;;
26718;SDS011;14326;50.794;6.060;2024-02-16T03:18:45;14.43;;;2.60;;
26718;SDS011;14326;50.794;6.060;2024-02-16T03:21:12;7.70;;;2.30;;
26718;SDS011;14326;50.794;6.060;2024-02-16T03:23:41;11.63;;;2.85;;
26718;SDS011;14326;50.794;6.060;2024-02-16T03:26:13;9.48;;;2.50;;
26718;SDS011;14326;50.794;6.060;2024-02-16T03:28:40;10.82;;;2.30;;
26718;SDS011;14326;50.794;6.060;2024-02-16T03:31:14;6.88;;;2.47;;
26718;SDS011;14326;50.794;6.060;2024-02-16T03:33:42;7.82;;;2.53;;
26718;SDS011;14326;50.794;6.060;2024-02-16T03:36:09;10.07;;;2.65;;
26718;SDS011;14326;50.794;6.060;2024-02-16T03:38:37;8.57;;;2.20;;
26718;SDS011;14326;50.794;6.060;2024-02-16T03:41:04;11.18;;;2.70;;
26718;SDS011;14326;50.794;6.060;2024-02-16T03:43:31;9.35;;;2.30;;
26718;SDS011;14326;50.794;6.060;2024-02-16T03:45:58;8.98;;;2.30;;
26718;SDS011;14326;50.794;6.060;2024-02-16T03:48:25;9.27;;;2.55;;
26718;SDS011;14326;50.794;6.060;2024-02-16T03:50:52;9.68;;;2.53;;
26718;SDS011;14326;50.794;6.060;2024-02-16T03:53:19;9.50;;;2.40;;
26718;SDS011;14326;50.794;6.060;2024-02-16T03:55:45;10.07;;;3.10;;
26718;SDS011;14326;50.794;6.060;2024-02-16T03:58:12;11.40;;;3.10;;
26718;SDS011;14326;50.794;6.060;2024-02-16T04:00:39;8.32;;;2.70;;
26718;SDS011;14326;50.794;6.060;2024-02-16T04:03:05;11.20;;;3.03;;
26718;SDS011;14326;50.794;6.060;2024-02-16T04:05:34;11.07;;;2.88;;
26718;SDS011;14326;50.794;6.060;2024-02-16T04:08:00;11.35;;;2.75;;
26718;SDS011;14326;50.794;6.060;2024-02-16T04:10:30;10.88;;;2.90;;
26718;SDS011;14326;50.794;6.060;2024-02-16T04:12:58;11.95;;;3.10;;
26718;SDS011;14326;50.794;6.060;2024-02-16T04:15:24;12.85;;;3.17;;
26718;SDS011;14326;50.794;6.060;2024-02-16T04:17:51;11.23;;;2.85;;
26718;SDS011;14326;50.794;6.060;2024-02-16T04:20:18;9.95;;;2.67;;
26718;SDS011;14326;50.794;6.060;2024-02-16T04:22:46;7.65;;;2.75;;
26718;SDS011;14326;50.794;6.060;2024-02-16T04:25:12;13.00;;;2.85;;
26718;SDS011;14326;50.794;6.060;2024-02-16T04:27:39;8.90;;;2.50;;
26718;SDS011;14326;50.794;6.060;2024-02-16T04:30:06;8.75;;;2.92;;
26718;SDS011;14326;50.794;6.060;2024-02-16T04:32:33;10.32;;;2.78;;
26718;SDS011;14326;50.794;6.060;2024-02-16T04:35:00;10.10;;;2.70;;
26718;SDS011;14326;50.794;6.060;2024-02-16T04:37:26;12.80;;;2.97;;
26718;SDS011;14326;50.794;6.060;2024-02-16T04:39:54;14.50;;;3.53;;
26718;SDS011;14326;50.794;6.060;2024-02-16T04:42:21;8.88;;;2.80;;
26718;SDS011;14326;50.794;6.060;2024-02-16T04:44:47;13.73;;;2.95;;
26718;SDS011;14326;50.794;6.060;2024-02-16T04:47:14;8.07;;;2.63;;
26718;SDS011;14326;50.794;6.060;2024-02-16T04:49:43;7.72;;;2.78;;
26718;SDS011;14326;50.794;6.060;2024-02-16T04:52:09;11.77;;;3.30;;
26718;SDS011;14326;50.794;6.060;2024-02-16T04:54:36;9.38;;;2.83;;
26718;SDS011;14326;50.794;6.060;2024-02-16T04:57:06;10.45;;;2.80;;
26718;SDS011;14326;50.794;6.060;2024-02-16T04:59:33;7.38;;;3.10;;
26718;SDS011;14326;50.794;6.060;2024-02-16T05:02:00;11.75;;;2.70;;
26718;SDS011;14326;50.794;6.060;2024-02-16T05:04:29;11.05;;;2.72;;
26718;SDS011;14326;50.794;6.060;2024-02-16T05:06:55;11.20;;;2.90;;
26718;SDS011;14326;50.794;6.060;2024-02-16T05:09:22;11.02;;;2.72;;
26718;SDS011;14326;50.794;6.060;2024-02-16T05:11:51;9.95;;;2.60;;
26718;SDS011;14326;50.794;6.060;2024-02-16T05:14:19;10.52;;;2.50;;
26718;SDS011;14326;50.794;6.060;2024-02-16T05:16:46;9.73;;;3.08;;
26718;SDS011;14326;50.794;6.060;2024-02-16T05:19:13;11.00;;;2.80;;
26718;SDS011;14326;50.794;6.060;2024-02-16T05:21:40;7.45;;;2.33;;
26718;SDS011;14326;50.794;6.060;2024-02-16T05:24:06;11.93;;;2.70;;
26718;SDS011;14326;50.794;6.060;2024-02-16T05:26:33;9.75;;;2.40;;
26718;SDS011;14326;50.794;6.060;2024-02-16T05:29:00;10.35;;;2.80;;
26718;SDS011;14326;50.794;6.060;2024-02-16T05:31:28;10.63;;;2.88;;
26718;SDS011;14326;50.794;6.060;2024-02-16T05:33:56;12.02;;;2.60;;
26718;SDS011;14326;50.794;6.060;2024-02-16T05:36:22;10.98;;;3.28;;
26718;SDS011;14326;50.794;6.060;2024-02-16T05:38:54;9.45;;;2.08;;
26718;SDS011;14326;50.794;6.060;2024-02-16T05:41:21;13.55;;;2.70;;
26718;SDS011;14326;50.794;6.060;2024-02-16T05:43:48;13.15;;;3.10;;
26718;SDS011;14326;50.794;6.060;2024-02-16T05:46:15;13.68;;;2.58;;
26718;SDS011;14326;50.794;6.060;2024-02-16T05:48:43;15.55;;;2.92;;
26718;SDS011;14326;50.794;6.060;2024-02-16T05:51:10;11.80;;;3.22;;
26718;SDS011;14326;50.794;6.060;2024-02-16T05:53:38;13.18;;;2.97;;
26718;SDS011;14326;50.794;6.060;2024-02-16T05:56:06;10.70;;;3.20;;
26718;SDS011;14326;50.794;6.060;2024-02-16T05:58:35;10.93;;;2.60;;
26718;SDS011;14326;50.794;6.060;2024-02-16T06:01:01;10.23;;;2.75;;
26718;SDS011;14326;50.794;6.060;2024-02-16T06:03:28;11.02;;;2.90;;
26718;SDS011;14326;50.794;6.060;2024-02-16T06:05:56;11.30;;;2.80;;
26718;SDS011;14326;50.794;6.060;2024-02-16T06:08:22;12.45;;;3.10;;
26718;SDS011;14326;50.794;6.060;2024-02-16T06:10:49;12.70;;;2.92;;
26718;SDS011;14326;50.794;6.060;2024-02-16T06:13:19;13.18;;;2.92;;
26718;SDS011;14326;50.794;6.060;2024-02-16T06:15:47;11.63;;;3.45;;
26718;SDS011;14326;50.794;6.060;2024-02-16T06:18:13;11.05;;;3.13;;
26718;SDS011;14326;50.794;6.060;2024-02-16T06:20:40;13.13;;;3.08;;
26718;SDS011;14326;50.794;6.060;2024-02-16T06:23:08;13.02;;;3.28;;
26718;SDS011;14326;50.794;6.060;2024-02-16T06:25:35;13.23;;;3.30;;
26718;SDS011;14326;50.794;6.060;2024-02-16T06:28:02;10.38;;;3.17;;
26718;SDS011;14326;50.794;6.060;2024-02-16T06:30:29;11.60;;;3.42;;
26718;SDS011;14326;50.794;6.060;2024-02-16T06:32:56;12.13;;;3.05;;
26718;SDS011;14326;50.794;6.060;2024-02-16T06:35:23;11.43;;;2.85;;
26718;SDS011;14326;50.794;6.060;2024-02-16T06:37:50;11.43;;;3.25;;
26718;SDS011;14326;50.794;6.060;2024-02-16T06:40:18;12.60;;;3.28;;
26718;SDS011;14326;50.794;6.060;2024-02-16T06:42:45;13.48;;;3.13;;
26718;SDS011;14326;50.794;6.060;2024-02-16T06:45:11;11.07;;;2.83;;
26718;SDS011;14326;50.794;6.060;2024-02-16T06:47:37;13.40;;;3.13;;
26718;SDS011;14326;50.794;6.060;2024-02-16T06:50:04;10.82;;;3.03;;
26718;SDS011;14326;50.794;6.060;2024-02-16T06:52:32;14.55;;;3.30;;
26718;SDS011;14326;50.794;6.060;2024-02-16T06:54:59;15.80;;;3.05;;
26718;SDS011;14326;50.794;6.060;2024-02-16T06:57:27;10.48;;;3.38;;
26718;SDS011;14326;50.794;6.060;2024-02-16T06:59:54;9.43;;;2.72;;
26718;SDS011;14326;50.794;6.060;2024-02-16T07:02:22;14.18;;;3.55;;
26718;SDS011;14326;50.794;6.060;2024-02-16T07:04:49;12.15;;;3.05;;
26718;SDS011;14326;50.794;6.060;2024-02-16T07:07:16;11.13;;;3.13;;
26718;SDS011;14326;50.794;6.060;2024-02-16T07:09:44;12.30;;;3.10;;
26718;SDS011;14326;50.794;6.060;2024-02-16T07:12:10;12.70;;;3.33;;
26718;SDS011;14326;50.794;6.060;2024-02-16T07:14:39;12.38;;;3.30;;
26718;SDS011;14326;50.794;6.060;2024-02-16T07:17:06;8.73;;;2.67;;
26718;SDS011;14326;50.794;6.060;2024-02-16T07:19:34;11.32;;;2.88;;
26718;SDS011;14326;50.794;6.060;2024-02-16T07:22:01;14.02;;;3.30;;
26718;SDS011;14326;50.794;6.060;2024-02-16T07:24:28;11.45;;;3.10;;
26718;SDS011;14326;50.794;6.060;2024-02-16T07:26:54;8.25;;;2.80;;
26718;SDS011;14326;50.794;6.060;2024-02-16T07:29:21;15.13;;;3.47;;
26718;SDS011;14326;50.794;6.060;2024-02-16T07:31:49;9.43;;;2.72;;
26718;SDS011;14326;50.794;6.060;2024-02-16T07:34:17;9.80;;;2.38;;
26718;SDS011;14326;50.794;6.060;2024-02-16T07:36:43;12.40;;;3.15;;
26718;SDS011;14326;50.794;6.060;2024-02-16T07:39:10;11.52;;;3.25;;
26718;SDS011;14326;50.794;6.060;2024-02-16T07:41:37;13.30;;;3.38;;
26718;SDS011;14326;50.794;6.060;2024-02-16T07:44:04;16.02;;;3.15;;
26718;SDS011;14326;50.794;6.060;2024-02-16T07:46:31;10.88;;;3.17;;
26718;SDS011;14326;50.794;6.060;2024-02-16T07:48:59;15.60;;;2.88;;
26718;SDS011;14326;50.794;6.060;2024-02-16T07:51:25;10.05;;;2.95;;
26718;SDS011;14326;50.794;6.060;2024-02-16T07:53:52;10.95;;;2.88;;
26718;SDS011;14326;50.794;6.060;2024-02-16T07:56:19;12.38;;;3.03;;
26718;SDS011;14326;50.794;6.060;2024-02-16T07:58:46;19.38;;;3.20;;
26718;SDS011;14326;50.794;6.060;2024-02-16T08:01:12;14.05;;;3.72;;
26718;SDS011;14326;50.794;6.060;2024-02-16T08:03:40;12.30;;;2.97;;
26718;SDS011;14326;50.794;6.060;2024-02-16T08:06:08;12.82;;;3.13;;
26718;SDS011;14326;50.794;6.060;2024-02-16T08:08:35;12.15;;;3.22;;
26718;SDS011;14326;50.794;6.060;2024-02-16T08:11:01;10.55;;;2.85;;
26718;SDS011;14326;50.794;6.060;2024-02-16T08:13:28;12.95;;;3.10;;
26718;SDS011;14326;50.794;6.060;2024-02-16T08:15:54;16.20;;;3.17;;
26718;SDS011;14326;50.794;6.060;2024-02-16T08:18:21;11.45;;;2.65;;
26718;SDS011;14326;50.794;6.060;2024-02-16T08:20:48;15.65;;;3.10;;
26718;SDS011;14326;50.794;6.060;2024-02-16T08:23:17;13.48;;;2.92;;
26718;SDS011;14326;50.794;6.060;2024-02-16T08:25:45;13.73;;;2.95;;
26718;SDS011;14326;50.794;6.060;2024-02-16T08:28:11;12.10;;;3.00;;
26718;SDS011;14326;50.794;6.060;2024-02-16T08:30:39;11.40;;;2.88;;
26718;SDS011;14326;50.794;6.060;2024-02-16T08:33:06;15.40;;;3.15;;
26718;SDS011;14326;50.794;6.060;2024-02-16T08:35:33;13.60;;;3.00;;
26718;SDS011;14326;50.794;6.060;2024-02-16T08:38:00;15.85;;;3.20;;
26718;SDS011;14326;50.794;6.060;2024-02-16T08:40:27;10.57;;;3.08;;
26718;SDS011;14326;50.794;6.060;2024-02-16T08:42:54;11.80;;;3.15;;
26718;SDS011;14326;50.794;6.060;2024-02-16T08:45:21;13.50;;;3.28;;
26718;SDS011;14326;50.794;6.060;2024-02-16T08:47:47;13.75;;;3.10;;
26718;SDS011;14326;50.794;6.060;2024-02-16T08:50:14;12.82;;;2.85;;
26718;SDS011;14326;50.794;6.060;2024-02-16T08:52:41;13.77;;;3.08;;
26718;SDS011;14326;50.794;6.060;2024-02-16T08:55:07;12.52;;;3.38;;
26718;SDS011;14326;50.794;6.060;2024-02-16T08:57:36;12.93;;;3.53;;
26718;SDS011;14326;50.794;6.060;2024-02-16T09:00:03;10.15;;;3.20;;
26718;SDS011;14326;50.794;6.060;2024-02-16T09:02:30;10.68;;;3.22;;
26718;SDS011;14326;50.794;6.060;2024-02-16T09:04:57;18.70;;;3.38;;
26718;SDS011;14326;50.794;6.060;2024-02-16T09:07:24;17.00;;;3.63;;
26718;SDS011;14326;50.794;6.060;2024-02-16T09:09:51;15.80;;;3.40;;
26718;SDS011;14326;50.794;6.060;2024-02-16T09:12:17;14.68;;;3.15;;
26718;SDS011;14326;50.794;6.060;2024-02-16T09:14:45;15.07;;;3.50;;
26718;SDS011;14326;50.794;6.060;2024-02-16T09:17:12;15.57;;;3.33;;
26718;SDS011;14326;50.794;6.060;2024-02-16T09:19:38;12.80;;;2.72;;
26718;SDS011;14326;50.794;6.060;2024-02-16T09:22:05;13.50;;;3.70;;
26718;SDS011;14326;50.794;6.060;2024-02-16T09:24:32;13.55;;;2.88;;
26718;SDS011;14326;50.794;6.060;2024-02-16T09:26:59;13.57;;;3.47;;
26718;SDS011;14326;50.794;6.060;2024-02-16T09:29:29;14.60;;;2.70;;
26718;SDS011;14326;50.794;6.060;2024-02-16T09:31:57;11.68;;;3.42;;
26718;SDS011;14326;50.794;6.060;2024-02-16T09:34:23;12.80;;;3.67;;
26718;SDS011;14326;50.794;6.060;2024-02-16T09:36:50;14.15;;;3.08;;
26718;SDS011;14326;50.794;6.060;2024-02-16T09:39:17;13.70;;;3.60;;
26718;SDS011;14326;50.794;6.060;2024-02-16T09:41:43;16.73;;;3.10;;
26718;SDS011;14326;50.794;6.060;2024-02-16T09:44:16;13.65;;;3.38;;
26718;SDS011;14326;50.794;6.060;2024-02-16T09:46:43;13.48;;;3.70;;
26718;SDS011;14326;50.794;6.060;2024-02-16T09:49:11;15.73;;;3.50;;
26718;SDS011;14326;50.794;6.060;2024-02-16T09:51:38;15.60;;;3.55;;
26718;SDS011;14326;50.794;6.060;2024-02-16T09:54:05;16.48;;;4.15;;
26718;SDS011;14326;50.794;6.060;2024-02-16T09:56:32;15.05;;;3.50;;
26718;SDS011;14326;50.794;6.060;2024-02-16T09:58:59;12.55;;;3.42;;
26718;SDS011;14326;50.794;6.060;2024-02-16T10:01:26;13.80;;;3.60;;
26718;SDS011;14326;50.794;6.060;2024-02-16T10:03:53;14.30;;;3.58;;
26718;SDS011;14326;50.794;6.060;2024-02-16T10:06:21;13.70;;;3.55;;
26718;SDS011;14326;50.794;6.060;2024-02-16T10:08:48;16.60;;;3.75;;
26718;SDS011;14326;50.794;6.060;2024-02-16T10:11:15;16.33;;;3.70;;
26718;SDS011;14326;50.794;6.060;2024-02-16T10:13:46;15.35;;;3.85;;
26718;SDS011;14326;50.794;6.060;2024-02-16T10:16:20;14.60;;;3.92;;
26718;SDS011;14326;50.794;6.060;2024-02-16T10:18:47;14.57;;;4.03;;
26718;SDS011;14326;50.794;6.060;2024-02-16T10:21:13;17.15;;;3.85;;
26718;SDS011;14326;50.794;6.060;2024-02-16T10:23:55;13.77;;;3.63;;
26718;SDS011;14326;50.794;6.060;2024-02-16T10:26:27;14.02;;;3.83;;
26718;SDS011;14326;50.794;6.060;2024-02-16T10:28:54;14.27;;;3.88;;
26718;SDS011;14326;50.794;6.060;2024-02-16T10:31:22;16.45;;;3.85;;
26718;SDS011;14326;50.794;6.060;2024-02-16T10:33:54;15.82;;;3.72;;
26718;SDS011;14326;50.794;6.060;2024-02-16T10:36:23;12.15;;;3.03;;
26718;SDS011;14326;50.794;6.060;2024-02-16T10:38:53;11.30;;;3.35;;
26718;SDS011;14326;50.794;6.060;2024-02-16T10:41:21;16.40;;;3.55;;
26718;SDS011;14326;50.794;6.060;2024-02-16T10:43:51;14.45;;;3.60;;
26718;SDS011;14326;50.794;6.060;2024-02-16T10:46:20;14.13;;;4.38;;
26718;SDS011;14326;50.794;6.060;2024-02-16T10:48:48;14.13;;;3.42;;
26718;SDS011;14326;50.794;6.060;2024-02-16T10:51:14;13.77;;;3.65;;
26718;SDS011;14326;50.794;6.060;2024-02-16T10:53:44;15.02;;;4.05;;
26718;SDS011;14326;50.794;6.060;2024-02-16T10:56:13;16.73;;;3.70;;
26718;SDS011;14326;50.794;6.060;2024-02-16T10:58:40;17.15;;;4.32;;
26718;SDS011;14326;50.794;6.060;2024-02-16T11:01:09;14.38;;;4.28;;
26718;SDS011;14326;50.794;6.060;2024-02-16T11:03:37;15.63;;;3.80;;
26718;SDS011;14326;50.794;6.060;2024-02-16T11:06:11;11.38;;;3.50;;
26718;SDS011;14326;50.794;6.060;2024-02-16T11:08:41;13.95;;;3.92;;
26718;SDS011;14326;50.794;6.060;2024-02-16T11:11:09;14.25;;;3.80;;
26718;SDS011;14326;50.794;6.060;2024-02-16T11:13:38;16.38;;;3.90;;
26718;SDS011;14326;50.794;6.060;2024-02-16T11:16:06;16.42;;;3.97;;
26718;SDS011;14326;50.794;6.060;2024-02-16T11:18:37;12.73;;;3.92;;
26718;SDS011;14326;50.794;6.060;2024-02-16T11:21:05;16.35;;;4.07;;
26718;SDS011;14326;50.794;6.060;2024-02-16T11:23:33;17.40;;;4.03;;
26718;SDS011;14326;50.794;6.060;2024-02-16T11:26:01;16.40;;;4.80;;
26718;SDS011;14326;50.794;6.060;2024-02-16T11:28:31;12.15;;;4.53;;
26718;SDS011;14326;50.794;6.060;2024-02-16T11:30:58;13.40;;;4.30;;
26718;SDS011;14326;50.794;6.060;2024-02-16T11:33:25;19.40;;;5.30;;
26718;SDS011;14326;50.794;6.060;2024-02-16T11:35:53;16.45;;;4.10;;
26718;SDS011;14326;50.794;6.060;2024-02-16T11:38:21;14.20;;;3.63;;
26718;SDS011;14326;50.794;6.060;2024-02-16T11:40:55;14.70;;;4.25;;
26718;SDS011;14326;50.794;6.060;2024-02-16T11:43:22;15.48;;;4.47;;
26718;SDS011;14326;50.794;6.060;2024-02-16T11:45:51;16.00;;;4.15;;
26718;SDS011;14326;50.794;6.060;2024-02-16T11:48:19;20.23;;;4.90;;
26718;SDS011;14326;50.794;6.060;2024-02-16T11:50:47;16.88;;;4.43;;
26718;SDS011;14326;50.794;6.060;2024-02-16T11:53:17;13.65;;;4.35;;
26718;SDS011;14326;50.794;6.060;2024-02-16T11:55:47;18.25;;;5.07;;
26718;SDS011;14326;50.794;6.060;2024-02-16T11:58:15;19.23;;;4.82;;
26718;SDS011;14326;50.794;6.060;2024-02-16T12:00:43;17.75;;;5.35;;
26718;SDS011;14326;50.794;6.060;2024-02-16T12:03:12;17.08;;;5.00;;
26718;SDS011;14326;50.794;6.060;2024-02-16T12:05:38;20.70;;;5.57;;
26718;SDS011;14326;50.794;6.060;2024-02-16T12:08:05;20.65;;;7.00;;
26718;SDS011;14326;50.794;6.060;2024-02-16T12:10:32;20.70;;;6.20;;
26718;SDS011;14326;50.794;6.060;2024-02-16T12:12:59;24.58;;;7.25;;
26718;SDS011;14326;50.794;6.060;2024-02-16T12:15:26;19.33;;;6.15;;
26718;SDS011;14326;50.794;6.060;2024-02-16T12:17:59;16.95;;;5.30;;
26718;SDS011;14326;50.794;6.060;2024-02-16T12:20:28;17.55;;;6.07;;
26718;SDS011;14326;50.794;6.060;2024-02-16T12:22:57;19.38;;;6.05;;
26718;SDS011;14326;50.794;6.060;2024-02-16T12:25:24;20.52;;;7.88;;
26718;SDS011;14326;50.794;6.060;2024-02-16T12:27:50;19.17;;;6.43;;
26718;SDS011;14326;50.794;6.060;2024-02-16T12:30:17;21.15;;;6.28;;
26718;SDS011;14326;50.794;6.060;2024-02-16T12:32:44;20.05;;;6.00;;
26718;SDS011;14326;50.794;6.060;2024-02-16T12:35:10;18.40;;;5.85;;
26718;SDS011;14326;50.794;6.060;2024-02-16T12:37:38;18.60;;;6.35;;
26718;SDS011;14326;50.794;6.060;2024-02-16T12:40:05;17.63;;;6.03;;
26718;SDS011;14326;50.794;6.060;2024-02-16T12:42:33;17.98;;;6.15;;
26718;SDS011;14326;50.794;6.060;2024-02-16T12:44:59;18.58;;;6.45;;
26718;SDS011;14326;50.794;6.060;2024-02-16T12:47:26;18.52;;;5.70;;
26718;SDS011;14326;50.794;6.060;2024-02-16T12:49:53;19.48;;;6.22;;
26718;SDS011;14326;50.794;6.060;2024-02-16T12:52:23;19.75;;;7.07;;
26718;SDS011;14326;50.794;6.060;2024-02-16T12:54:51;19.80;;;5.60;;
26718;SDS011;14326;50.794;6.060;2024-02-16T12:57:19;20.98;;;6.65;;
26718;SDS011;14326;50.794;6.060;2024-02-16T12:59:45;18.30;;;6.63;;
26718;SDS011;14326;50.794;6.060;2024-02-16T13:02:12;17.58;;;6.00;;
26718;SDS011;14326;50.794;6.060;2024-02-16T13:04:38;20.00;;;6.72;;
26718;SDS011;14326;50.794;6.060;2024-02-16T13:07:05;21.65;;;6.30;;
26718;SDS011;14326;50.794;6.060;2024-02-16T13:09:32;21.58;;;6.53;;
26718;SDS011;14326;50.794;6.060;2024-02-16T13:12:00;19.75;;;6.57;;
26718;SDS011;14326;50.794;6.060;2024-02-16T13:14:26;17.50;;;6.13;;
26718;SDS011;14326;50.794;6.060;2024-02-16T13:16:53;21.42;;;6.38;;
26718;SDS011;14326;50.794;6.060;2024-02-16T13:19:20;21.77;;;6.78;;
26718;SDS011;14326;50.794;6.060;2024-02-16T13:21:46;19.80;;;6.43;;
26718;SDS011;14326;50.794;6.060;2024-02-16T13:24:13;18.50;;;6.95;;
26718;SDS011;14326;50.794;6.060;2024-02-16T13:26:40;19.38;;;6.97;;
26718;SDS011;14326;50.794;6.060;2024-02-16T13:29:08;17.52;;;6.20;;
26718;SDS011;14326;50.794;6.060;2024-02-16T13:31:35;17.65;;;6.68;;
26718;SDS011;14326;50.794;6.060;2024-02-16T13:34:01;21.42;;;7.95;;
26718;SDS011;14326;50.794;6.060;2024-02-16T13:36:28;20.98;;;6.95;;
26718;SDS011;14326;50.794;6.060;2024-02-16T13:38:54;20.42;;;7.18;;
26718;SDS011;14326;50.794;6.060;2024-02-16T13:41:21;18.52;;;6.45;;
26718;SDS011;14326;50.794;6.060;2024-02-16T13:43:48;18.30;;;6.57;;
26718;SDS011;14326;50.794;6.060;2024-02-16T13:46:16;17.40;;;6.57;;
26718;SDS011;14326;50.794;6.060;2024-02-16T13:48:43;20.08;;;6.63;;
26718;SDS011;14326;50.794;6.060;2024-02-16T13:51:09;19.92;;;6.55;;
26718;SDS011;14326;50.794;6.060;2024-02-16T13:53:36;16.63;;;5.63;;
26718;SDS011;14326;50.794;6.060;2024-02-16T13:56:03;19.13;;;6.55;;
26718;SDS011;14326;50.794;6.060;2024-02-16T13:58:31;18.33;;;6.28;;
26718;SDS011;14326;50.794;6.060;2024-02-16T14:00:59;19.15;;;6.05;;
26718;SDS011;14326;50.794;6.060;2024-02-16T14:03:28;18.92;;;6.50;;
26718;SDS011;14326;50.794;6.060;2024-02-16T14:05:55;14.75;;;5.40;;
26718;SDS011;14326;50.794;6.060;2024-02-16T14:08:22;13.63;;;5.22;;
26718;SDS011;14326;50.794;6.060;2024-02-16T14:10:48;15.48;;;5.55;;
26718;SDS011;14326;50.794;6.060;2024-02-16T14:13:15;17.13;;;5.85;;
26718;SDS011;14326;50.794;6.060;2024-02-16T14:15:42;17.92;;;5.70;;
26718;SDS011;14326;50.794;6.060;2024-02-16T14:18:08;13.85;;;5.35;;
26718;SDS011;14326;50.794;6.060;2024-02-16T14:20:36;15.48;;;5.53;;
26718;SDS011;14326;50.794;6.060;2024-02-16T14:23:03;14.45;;;4.85;;
26718;SDS011;14326;50.794;6.060;2024-02-16T14:25:32;12.52;;;5.20;;
26718;SDS011;14326;50.794;6.060;2024-02-16T14:28:00;14.55;;;4.90;;
26718;SDS011;14326;50.794;6.060;2024-02-16T14:30:26;16.75;;;5.43;;
26718;SDS011;14326;50.794;6.060;2024-02-16T14:32:53;12.70;;;4.30;;
26718;SDS011;14326;50.794;6.060;2024-02-16T14:35:19;13.35;;;4.90;;
26718;SDS011;14326;50.794;6.060;2024-02-16T14:37:48;12.82;;;4.88;;